createdAt,value
2019-05-23T00:01:53.613Z,8.23
2019-05-23T00:04:43.984Z,9.23
2019-05-23T00:07:33.075Z,10.73
2019-05-23T00:10:22.924Z,10.03
2019-05-23T00:13:02.294Z,7.60
2019-05-23T00:15:38.647Z,9.63
2019-05-23T00:18:10.541Z,9.20
2019-05-23T00:20:41.601Z,9.27
2019-05-23T00:23:13.230Z,9.03
2019-05-23T00:25:44.118Z,9.17
2019-05-23T00:28:15.540Z,10.43
2019-05-23T00:30:56.482Z,10.23
2019-05-23T00:33:28.162Z,9.53
2019-05-23T00:35:59.327Z,10.30
2019-05-23T00:38:31.616Z,11.30
2019-05-23T00:41:03.114Z,10.90
2019-05-23T00:43:34.034Z,8.60
2019-05-23T00:46:04.953Z,9.57
2019-05-23T00:48:36.661Z,8.37
2019-05-23T00:51:07.277Z,9.73
2019-05-23T00:53:38.788Z,9.87
2019-05-23T00:56:09.791Z,9.13
2019-05-23T00:58:41.052Z,9.60
2019-05-23T01:01:13.485Z,11.17
2019-05-23T01:03:43.518Z,11.33
2019-05-23T01:06:15.944Z,8.87
2019-05-23T01:08:47.032Z,9.50
2019-05-23T01:11:17.588Z,12.23
2019-05-23T01:13:48.244Z,9.97
2019-05-23T01:16:22.155Z,10.47
2019-05-23T01:18:53.596Z,9.33
2019-05-23T01:21:42.578Z,10.73
2019-05-23T01:24:23.015Z,8.83
2019-05-23T01:26:53.404Z,9.37
2019-05-23T01:29:25.633Z,9.27
2019-05-23T01:32:03.383Z,9.63
2019-05-23T01:34:34.249Z,12.13
2019-05-23T01:37:05.167Z,12.03
2019-05-23T01:39:36.324Z,10.57
2019-05-23T01:42:07.423Z,11.20
2019-05-23T01:44:37.560Z,11.87
2019-05-23T01:47:09.155Z,10.83
2019-05-23T01:49:40.917Z,11.20
2019-05-23T01:52:12.056Z,10.80
2019-05-23T01:54:42.612Z,10.50
2019-05-23T01:57:12.866Z,9.70
2019-05-23T01:59:42.916Z,10.30
2019-05-23T02:02:14.219Z,9.97
2019-05-23T02:04:45.579Z,10.30
2019-05-23T02:07:16.643Z,9.30
2019-05-23T02:09:46.737Z,9.20
2019-05-23T02:12:18.156Z,10.67
2019-05-23T02:14:50.011Z,10.63
2019-05-23T02:17:21.596Z,9.20
2019-05-23T02:19:52.047Z,10.23
2019-05-23T02:22:22.729Z,9.80
2019-05-23T02:24:53.133Z,9.63
2019-05-23T02:27:23.307Z,10.97
2019-05-23T02:29:55.469Z,10.40
2019-05-23T02:32:26.428Z,9.27
2019-05-23T02:34:57.925Z,10.77
2019-05-23T02:37:32.380Z,8.47
2019-05-23T02:40:13.929Z,10.47
2019-05-23T02:42:52.237Z,9.70
2019-05-23T02:45:26.063Z,9.10
2019-05-23T02:47:58.564Z,7.67
2019-05-23T02:50:51.190Z,10.63
2019-05-23T02:53:25.637Z,9.17
2019-05-23T02:55:58.674Z,10.20
2019-05-23T02:58:44.064Z,9.83
2019-05-23T03:01:36.886Z,11.00
2019-05-23T03:04:12.198Z,9.47
2019-05-23T03:06:43.953Z,10.30
2019-05-23T03:09:17.116Z,10.73
2019-05-23T03:11:49.077Z,11.20
2019-05-23T03:14:19.961Z,11.97
2019-05-23T03:16:52.252Z,11.43
2019-05-23T03:19:38.484Z,11.23
2019-05-23T03:22:56.139Z,8.73
2019-05-23T03:25:39.174Z,9.10
2019-05-23T03:28:12.841Z,9.67
2019-05-23T03:33:37.426Z,9.27
2019-05-23T03:36:08.475Z,9.73
2019-05-23T03:38:38.628Z,10.27
2019-05-23T03:41:08.616Z,10.03
2019-05-23T03:43:39.611Z,11.13
2019-05-23T03:46:11.258Z,10.13
2019-05-23T03:48:42.480Z,9.97
2019-05-23T03:51:13.546Z,9.67
2019-05-23T03:53:43.563Z,7.80
2019-05-23T03:56:13.574Z,9.60
2019-05-23T03:58:45.073Z,10.07
2019-05-23T04:01:16.511Z,9.90
2019-05-23T04:03:47.916Z,8.13
2019-05-23T04:06:18.572Z,9.23
2019-05-23T04:08:50.048Z,8.20
2019-05-23T04:11:20.992Z,8.37
2019-05-23T04:13:51.776Z,8.60
2019-05-23T04:16:23.133Z,8.07
2019-05-23T04:18:53.323Z,8.23
2019-05-23T04:21:24.852Z,7.57
2019-05-23T04:23:54.833Z,8.73
2019-05-23T04:26:24.849Z,7.53
2019-05-23T04:28:54.978Z,8.10
2019-05-23T04:31:25.156Z,8.93
2019-05-23T04:33:55.275Z,8.63
2019-05-23T04:36:25.738Z,8.67
2019-05-23T04:38:55.760Z,7.40
2019-05-23T04:41:26.212Z,8.30
2019-05-23T04:43:56.245Z,8.73
2019-05-23T04:46:26.212Z,9.10
2019-05-23T04:48:56.232Z,7.57
2019-05-23T04:51:27.093Z,9.27
2019-05-23T04:53:57.115Z,8.97
2019-05-23T04:56:27.267Z,8.57
2019-05-23T04:58:57.285Z,8.20
2019-05-23T05:01:27.273Z,8.87
2019-05-23T05:03:57.669Z,9.07
2019-05-23T05:06:27.893Z,8.17
2019-05-23T05:09:00.618Z,8.27
2019-05-23T05:11:31.212Z,11.03
2019-05-23T05:14:01.212Z,10.97
2019-05-23T05:16:32.467Z,9.90
2019-05-23T05:19:02.464Z,10.13
2019-05-23T05:21:33.352Z,13.20
2019-05-23T05:24:03.561Z,14.70
2019-05-23T05:26:33.624Z,14.50
2019-05-23T05:29:03.643Z,14.20
2019-05-23T05:31:33.641Z,13.73
2019-05-23T05:34:03.835Z,13.87
2019-05-23T05:36:33.864Z,13.80
2019-05-23T05:39:05.956Z,11.13
2019-05-23T05:41:36.823Z,13.07
2019-05-23T05:44:07.417Z,13.00
2019-05-23T05:46:37.408Z,13.27
2019-05-23T05:49:08.470Z,13.20
2019-05-23T05:51:38.980Z,14.30
2019-05-23T05:54:10.212Z,11.90
2019-05-23T05:56:41.460Z,13.40
2019-05-23T05:59:11.517Z,13.07
2019-05-23T06:01:41.850Z,13.10
2019-05-23T06:04:12.743Z,12.10
2019-05-23T06:06:44.381Z,12.37
2019-05-23T06:12:08.781Z,11.93
2019-05-23T06:14:39.220Z,12.53
2019-05-23T06:17:10.953Z,11.70
2019-05-23T06:19:41.720Z,10.97
2019-05-23T06:22:12.312Z,10.70
2019-05-23T06:24:49.116Z,11.33
2019-05-23T06:27:19.236Z,11.23
2019-05-23T06:29:49.379Z,10.63
2019-05-23T06:32:21.040Z,10.97
2019-05-23T06:34:52.471Z,10.33
2019-05-23T06:37:24.105Z,10.97
2019-05-23T06:39:54.065Z,9.83
2019-05-23T06:42:24.094Z,9.93
2019-05-23T06:44:55.348Z,9.77
2019-05-23T06:47:25.374Z,10.87
2019-05-23T06:49:55.371Z,10.57
2019-05-23T06:52:25.478Z,11.07
2019-05-23T06:54:59.451Z,12.20
2019-05-23T06:57:27.386Z,11.13
2019-05-23T06:59:57.478Z,10.43
2019-05-23T07:02:31.539Z,9.83
2019-05-23T07:04:59.591Z,10.97
2019-05-23T07:07:31.613Z,10.43
2019-05-23T07:10:02.619Z,11.13
2019-05-23T07:12:32.780Z,11.00
2019-05-23T07:15:05.677Z,10.63
2019-05-23T07:17:38.227Z,9.10
2019-05-23T07:20:10.441Z,8.90
2019-05-23T07:22:41.727Z,9.00
2019-05-23T07:25:11.988Z,8.77
2019-05-23T07:27:42.371Z,9.10
2019-05-23T07:30:17.917Z,8.27
2019-05-23T07:32:47.939Z,10.10
2019-05-23T07:35:19.199Z,10.53
2019-05-23T07:37:49.160Z,10.20
2019-05-23T07:40:19.357Z,9.17
2019-05-23T07:42:50.345Z,8.53
2019-05-23T07:45:34.123Z,9.57
2019-05-23T07:48:04.622Z,8.60
2019-05-23T07:50:34.604Z,9.43
2019-05-23T07:53:06.361Z,7.70
2019-05-23T07:55:38.065Z,7.93
2019-05-23T07:58:12.887Z,7.30
2019-05-23T08:00:49.139Z,7.63
2019-05-23T08:03:20.160Z,6.77
2019-05-23T08:05:50.549Z,6.50
2019-05-23T08:08:20.807Z,6.30
2019-05-23T08:10:50.802Z,7.10
2019-05-23T08:13:20.820Z,8.00
2019-05-23T08:15:51.494Z,7.17
2019-05-23T08:18:21.884Z,8.10
2019-05-23T08:20:51.834Z,7.00
2019-05-23T08:23:21.825Z,7.43
2019-05-23T08:25:52.145Z,7.40
2019-05-23T08:28:22.384Z,8.20
2019-05-23T08:30:52.393Z,6.77
2019-05-23T08:33:22.386Z,7.27
2019-05-23T08:35:53.271Z,7.33
2019-05-23T08:38:24.313Z,6.87
2019-05-23T08:40:56.326Z,6.90
2019-05-23T08:43:27.184Z,6.40
2019-05-23T08:45:58.269Z,6.47
2019-05-23T08:48:29.154Z,7.70
2019-05-23T08:50:59.726Z,6.87
2019-05-23T08:53:30.401Z,6.43
2019-05-23T08:56:00.963Z,6.70
2019-05-23T08:58:31.457Z,6.53
2019-05-23T09:01:02.750Z,6.00
2019-05-23T09:03:33.178Z,5.70
2019-05-23T09:06:03.350Z,5.70
2019-05-23T09:08:34.296Z,6.13
2019-05-23T09:11:05.082Z,6.07
2019-05-23T09:13:35.438Z,5.13
2019-05-23T09:16:05.659Z,6.10
2019-05-23T09:18:35.921Z,5.80
2019-05-23T09:21:07.565Z,5.10
2019-05-23T09:23:37.583Z,6.00
2019-05-23T09:26:07.640Z,5.87
2019-05-23T09:28:37.584Z,6.17
2019-05-23T09:31:08.568Z,6.40
2019-05-23T09:33:38.899Z,6.13
2019-05-23T09:36:09.770Z,4.40
2019-05-23T09:38:40.148Z,5.77
2019-05-23T09:41:10.871Z,5.40
2019-05-23T09:43:40.776Z,5.60
2019-05-23T09:46:11.281Z,5.33
2019-05-23T09:48:41.373Z,5.37
2019-05-23T09:51:11.349Z,5.00
2019-05-23T09:53:47.082Z,5.30
2019-05-23T09:56:13.358Z,5.67
2019-05-23T09:58:43.369Z,6.13
2019-05-23T10:01:14.952Z,5.43
2019-05-23T10:03:44.998Z,6.03
2019-05-23T10:06:15.092Z,5.93
2019-05-23T10:08:45.103Z,5.10
2019-05-23T10:11:15.695Z,5.40
2019-05-23T10:13:45.738Z,5.63
2019-05-23T10:16:15.838Z,5.63
2019-05-23T10:18:45.887Z,4.87
2019-05-23T10:21:15.895Z,5.50
2019-05-23T10:23:45.875Z,4.70
2019-05-23T10:26:16.060Z,5.20
2019-05-23T10:28:46.040Z,5.17
2019-05-23T10:31:17.694Z,4.73
2019-05-23T10:33:48.211Z,4.97
2019-05-23T10:36:18.905Z,4.63
2019-05-23T10:38:48.959Z,5.07
2019-05-23T10:41:18.982Z,5.33
2019-05-23T10:43:48.988Z,5.03
2019-05-23T10:46:19.371Z,4.87
2019-05-23T10:48:50.378Z,5.10
2019-05-23T10:51:20.916Z,5.20
2019-05-23T10:53:51.002Z,5.30
2019-05-23T10:56:21.849Z,5.30
2019-05-23T10:58:51.932Z,4.60
2019-05-23T11:01:21.921Z,5.47
2019-05-23T11:03:52.382Z,5.70
2019-05-23T11:06:22.366Z,5.47
2019-05-23T11:08:52.861Z,4.93
2019-05-23T11:11:24.820Z,5.43
2019-05-23T11:13:56.723Z,4.60
2019-05-23T11:16:26.934Z,4.93
2019-05-23T11:18:56.991Z,5.47
2019-05-23T11:21:27.504Z,4.07
2019-05-23T11:23:57.561Z,4.47
2019-05-23T11:26:27.563Z,4.63
2019-05-23T11:28:58.179Z,4.00
2019-05-23T11:31:28.299Z,4.63
2019-05-23T11:33:58.374Z,4.20
2019-05-23T11:36:35.805Z,4.70
2019-05-23T11:39:00.535Z,4.13
2019-05-23T11:41:31.212Z,4.83
2019-05-23T11:44:01.305Z,5.10
2019-05-23T11:46:32.944Z,5.00
2019-05-23T11:49:07.866Z,4.87
2019-05-23T11:51:38.978Z,5.03
2019-05-23T11:54:10.617Z,5.03
2019-05-23T11:56:42.747Z,4.30
2019-05-23T11:59:12.827Z,4.53
2019-05-23T12:01:44.581Z,4.43
2019-05-23T12:04:16.500Z,4.53
2019-05-23T12:09:40.351Z,4.23
2019-05-23T12:12:10.727Z,4.90
2019-05-23T12:14:41.499Z,4.53
2019-05-23T12:17:12.990Z,5.33
2019-05-23T12:19:42.899Z,4.20
2019-05-23T12:22:13.841Z,4.50
2019-05-23T12:24:43.929Z,4.87
2019-05-23T12:27:14.690Z,5.33
2019-05-23T12:29:44.735Z,4.63
2019-05-23T12:32:15.153Z,5.40
2019-05-23T12:35:08.070Z,4.17
2019-05-23T12:37:20.171Z,4.30
2019-05-23T12:39:49.087Z,4.67
2019-05-23T12:42:19.371Z,4.67
2019-05-23T12:44:50.594Z,4.37
2019-05-23T12:47:22.206Z,4.40
2019-05-23T12:49:53.848Z,3.93
2019-05-23T12:52:23.820Z,4.20
2019-05-23T12:54:54.330Z,4.60
2019-05-23T12:57:24.781Z,4.83
2019-05-23T12:59:55.850Z,3.87
2019-05-23T13:02:27.469Z,3.53
2019-05-23T13:04:59.826Z,4.60
2019-05-23T13:07:36.192Z,3.93
2019-05-23T13:10:02.442Z,4.70
2019-05-23T13:12:32.681Z,4.00
2019-05-23T13:15:02.838Z,4.13
2019-05-23T13:17:35.010Z,4.83
2019-05-23T13:20:09.439Z,4.33
2019-05-23T13:22:39.948Z,4.10
2019-05-23T13:25:11.310Z,3.93
2019-05-23T13:27:45.559Z,3.40
2019-05-23T13:30:15.829Z,3.67
2019-05-23T13:32:46.237Z,4.07
2019-05-23T13:35:16.805Z,3.87
2019-05-23T13:37:53.779Z,3.90
2019-05-23T13:40:19.047Z,3.73
2019-05-23T13:42:49.063Z,3.60
2019-05-23T13:45:19.945Z,4.43
2019-05-23T13:47:49.988Z,3.60
2019-05-23T13:50:20.110Z,3.77
2019-05-23T13:52:50.866Z,5.30
2019-05-23T13:55:21.218Z,4.40
2019-05-23T13:57:52.258Z,4.13
2019-05-23T14:00:24.638Z,3.80
2019-05-23T14:02:55.059Z,4.10
2019-05-23T14:05:25.522Z,4.13
2019-05-23T14:08:10.532Z,3.37
2019-05-23T14:10:28.640Z,4.00
2019-05-23T14:12:59.732Z,4.20
2019-05-23T14:15:43.980Z,4.37
2019-05-23T14:18:21.596Z,3.07
2019-05-23T14:20:51.915Z,3.87
2019-05-23T14:23:23.849Z,4.00
2019-05-23T14:25:55.598Z,4.70
2019-05-23T14:28:26.780Z,4.00
2019-05-23T14:31:10.640Z,3.50
2019-05-23T14:33:58.818Z,3.42
2019-05-23T14:36:48.525Z,4.17
2019-05-23T14:39:20.484Z,4.90
2019-05-23T14:41:57.769Z,4.27
2019-05-23T14:44:28.947Z,4.07
2019-05-23T14:47:18.788Z,3.90
2019-05-23T14:50:08.435Z,3.87
2019-05-23T14:52:45.636Z,3.77
2019-05-23T14:55:16.856Z,4.90
2019-05-23T14:57:48.069Z,4.03
2019-05-23T15:00:18.933Z,3.80
2019-05-23T15:02:48.975Z,4.20
2019-05-23T15:05:23.741Z,3.70
2019-05-23T15:07:54.190Z,3.43
2019-05-23T15:10:24.271Z,4.00
2019-05-23T15:12:54.281Z,4.13
2019-05-23T15:15:24.581Z,3.53
2019-05-23T15:17:57.173Z,4.27
2019-05-23T15:20:29.418Z,4.23
2019-05-23T15:23:00.223Z,3.60
2019-05-23T15:25:30.511Z,4.50
2019-05-23T15:28:00.911Z,3.80
2019-05-23T15:30:30.913Z,4.57
2019-05-23T15:33:01.000Z,4.20
2019-05-23T15:35:32.392Z,4.40
2019-05-23T15:38:02.405Z,4.43
2019-05-23T15:40:32.863Z,4.17
2019-05-23T15:43:03.298Z,3.50
2019-05-23T15:45:33.480Z,3.87
2019-05-23T15:48:03.701Z,3.80
2019-05-23T15:50:36.080Z,3.27
2019-05-23T15:53:10.721Z,4.30
2019-05-23T15:55:48.580Z,3.83
2019-05-23T15:58:23.040Z,4.40
2019-05-23T16:00:54.758Z,3.93
2019-05-23T16:03:31.531Z,4.27
2019-05-23T16:06:01.891Z,3.63
2019-05-23T16:08:31.969Z,3.70
2019-05-23T16:11:03.369Z,3.40
2019-05-23T16:13:33.930Z,3.63
2019-05-23T16:16:04.410Z,3.50
2019-05-23T16:18:34.525Z,2.93
2019-05-23T16:21:05.588Z,3.43
2019-05-23T16:23:37.301Z,3.23
2019-05-23T16:26:11.429Z,3.50
2019-05-23T16:28:39.199Z,3.10
2019-05-23T16:31:09.682Z,3.80
2019-05-23T16:33:43.331Z,3.07
2019-05-23T16:36:19.069Z,3.40
2019-05-23T16:38:49.909Z,3.33
2019-05-23T16:41:20.744Z,3.57
2019-05-23T16:43:51.249Z,3.70
2019-05-23T16:46:21.451Z,3.70
2019-05-23T16:48:52.913Z,2.70
2019-05-23T16:51:24.026Z,3.00
2019-05-23T16:53:54.416Z,3.40
2019-05-23T16:56:33.731Z,3.40
2019-05-23T16:59:18.510Z,2.93
2019-05-23T17:02:00.391Z,3.35
2019-05-23T17:04:29.926Z,3.53
2019-05-23T17:07:09.327Z,3.93
2019-05-23T17:10:08.138Z,3.13
2019-05-23T17:12:32.648Z,3.20
2019-05-23T17:15:04.278Z,3.80
2019-05-23T17:18:00.546Z,3.70
2019-05-23T17:20:19.471Z,3.37
2019-05-23T17:22:55.010Z,3.42
2019-05-23T17:25:35.902Z,4.27
2019-05-23T17:28:07.698Z,3.63
2019-05-23T17:30:48.554Z,3.10
2019-05-23T18:55:36.088Z,2.10
2019-05-23T18:58:07.295Z,2.57
2019-05-23T19:00:52.500Z,2.37
2019-05-23T19:03:23.109Z,2.40
2019-05-23T19:05:53.512Z,2.40
2019-05-23T19:08:23.623Z,2.70
2019-05-23T19:10:54.136Z,2.83
2019-05-23T19:13:26.528Z,2.73
2019-05-23T19:15:55.813Z,2.70
2019-05-23T19:18:26.958Z,2.90
2019-05-23T19:20:59.567Z,2.53
2019-05-23T19:23:29.505Z,2.50
2019-05-23T19:25:59.951Z,2.80
2019-05-23T19:28:31.908Z,3.07
2019-05-23T19:31:03.003Z,3.00
2019-05-23T19:33:34.826Z,3.10
2019-05-23T19:36:07.073Z,3.00
2019-05-23T19:38:37.151Z,2.93
2019-05-23T19:41:09.573Z,3.17
2019-05-23T19:43:39.573Z,3.70
2019-05-23T19:46:09.549Z,3.20
2019-05-23T19:48:41.683Z,3.23
2019-05-23T19:51:11.781Z,2.50
2019-05-23T19:53:41.956Z,3.53
2019-05-23T19:56:11.971Z,2.30
2019-05-23T19:58:42.776Z,2.37
2019-05-23T20:01:13.389Z,2.63
2019-05-23T20:03:43.893Z,3.00
2019-05-23T20:06:15.134Z,2.70
2019-05-23T20:08:47.270Z,2.80
2019-05-23T20:11:17.412Z,3.17
2019-05-23T20:13:47.481Z,2.87
2019-05-23T20:16:17.528Z,2.77
2019-05-23T20:18:48.507Z,2.33
2019-05-23T20:21:18.950Z,3.60
2019-05-23T20:23:48.978Z,3.57
2019-05-23T20:26:19.219Z,3.33
2019-05-23T20:28:49.224Z,3.43
2019-05-23T20:31:19.194Z,3.03
2019-05-23T20:33:50.073Z,3.17
2019-05-23T20:36:21.129Z,2.83
2019-05-23T20:38:51.055Z,3.53
2019-05-23T20:41:22.773Z,3.87
2019-05-23T20:43:52.856Z,3.60
2019-05-23T20:46:24.195Z,3.40
2019-05-23T20:48:54.203Z,4.33
2019-05-23T20:51:25.349Z,4.40
2019-05-23T20:53:55.375Z,3.57
2019-05-23T20:56:25.527Z,4.00
2019-05-23T20:58:55.635Z,3.77
2019-05-23T21:01:32.977Z,4.87
2019-05-23T21:04:03.004Z,4.13
2019-05-23T21:06:34.302Z,4.30
2019-05-23T21:09:06.401Z,4.20
2019-05-23T21:11:36.473Z,4.20
2019-05-23T21:14:06.479Z,4.20
2019-05-23T21:16:36.449Z,4.63
2019-05-23T21:19:06.458Z,4.77
2019-05-23T21:21:36.542Z,4.23
2019-05-23T21:24:07.615Z,4.87
2019-05-23T21:26:37.686Z,4.53
2019-05-23T21:29:07.692Z,4.70
2019-05-23T21:31:37.905Z,4.67
2019-05-23T21:34:07.923Z,3.80
2019-05-23T21:36:37.971Z,3.73
2019-05-23T21:39:10.083Z,3.80
2019-05-23T21:41:40.260Z,4.70
2019-05-23T21:44:10.279Z,4.60
2019-05-23T21:46:40.324Z,3.93
2019-05-23T21:49:10.364Z,3.63
2019-05-23T21:51:40.409Z,3.83
2019-05-23T21:54:10.486Z,3.70
2019-05-23T21:56:40.401Z,4.57
2019-05-23T21:59:10.415Z,4.57
2019-05-23T22:01:44.748Z,4.37
2019-05-23T22:06:58.733Z,4.33
2019-05-23T22:09:29.431Z,3.83
2019-05-23T22:11:59.468Z,4.23
2019-05-23T22:14:29.560Z,4.50
2019-05-23T22:16:59.551Z,4.10
2019-05-23T22:19:29.774Z,4.20
2019-05-23T22:21:59.860Z,4.70
2019-05-23T22:24:29.971Z,3.47
2019-05-23T22:27:01.046Z,4.20
2019-05-23T22:29:31.055Z,3.67
2019-05-23T22:32:01.037Z,4.13
2019-05-23T22:34:33.059Z,4.30
2019-05-23T22:37:04.744Z,3.97
2019-05-23T22:39:34.844Z,4.00
2019-05-23T22:42:06.317Z,4.27
2019-05-23T22:44:36.270Z,3.13
2019-05-23T22:47:06.423Z,3.47
2019-05-23T22:49:36.402Z,3.30
2019-05-23T22:52:06.976Z,3.70
2019-05-23T22:54:36.946Z,3.37
2019-05-23T22:57:07.022Z,3.57
2019-05-23T22:59:37.566Z,3.30
2019-05-23T23:02:10.150Z,3.00
2019-05-23T23:04:40.155Z,3.40
2019-05-23T23:07:11.170Z,3.43
2019-05-23T23:09:41.185Z,3.70
2019-05-23T23:12:11.359Z,3.27
2019-05-23T23:14:41.373Z,3.10
2019-05-23T23:17:11.414Z,3.43
2019-05-23T23:19:41.413Z,2.90
2019-05-23T23:22:13.196Z,3.43
2019-05-23T23:24:43.173Z,3.40
2019-05-23T23:27:13.253Z,2.83
2019-05-23T23:29:43.594Z,3.50
2019-05-23T23:32:13.679Z,3.10
2019-05-23T23:34:43.650Z,2.87
2019-05-23T23:37:13.723Z,3.30
2019-05-23T23:39:43.653Z,3.17
2019-05-23T23:42:14.323Z,2.63
2019-05-23T23:44:43.543Z,2.90
2019-05-23T23:47:31.579Z,3.50
2019-05-23T23:50:19.306Z,3.33
2019-05-23T23:53:07.320Z,3.50
2019-05-23T23:55:55.294Z,3.37
2019-05-23T23:58:24.546Z,3.00
